sensor_id;sensor_type;location;lat;lon;timestamp;P1;durP1;ratioP1;P2;durP2;ratioP2
78116;SDS011;69042;59.120;37.904;2023-06-14T00:00:15;6.00;;;3.40;;
78116;SDS011;69042;59.120;37.904;2023-06-14T00:02:41;6.28;;;3.42;;
78116;SDS011;69042;59.120;37.904;2023-06-14T00:05:07;6.43;;;3.03;;
78116;SDS011;69042;59.120;37.904;2023-06-14T00:07:40;6.53;;;3.38;;
78116;SDS011;69042;59.120;37.904;2023-06-14T00:10:14;6.80;;;3.30;;
78116;SDS011;69042;59.120;37.904;2023-06-14T00:12:40;6.00;;;3.10;;
78116;SDS011;69042;59.120;37.904;2023-06-14T00:15:07;7.30;;;3.90;;
78116;SDS011;69042;59.120;37.904;2023-06-14T00:17:35;6.85;;;3.63;;
78116;SDS011;69042;59.120;37.904;2023-06-14T00:20:02;6.68;;;3.42;;
78116;SDS011;69042;59.120;37.904;2023-06-14T00:22:32;7.30;;;3.20;;
78116;SDS011;69042;59.120;37.904;2023-06-14T00:24:58;7.63;;;3.40;;
78116;SDS011;69042;59.120;37.904;2023-06-14T00:27:24;6.40;;;3.47;;
78116;SDS011;69042;59.120;37.904;2023-06-14T00:29:51;7.32;;;3.60;;
78116;SDS011;69042;59.120;37.904;2023-06-14T00:32:18;6.40;;;3.15;;
78116;SDS011;69042;59.120;37.904;2023-06-14T00:34:44;5.80;;;3.47;;
78116;SDS011;69042;59.120;37.904;2023-06-14T00:37:10;6.30;;;3.40;;
78116;SDS011;69042;59.120;37.904;2023-06-14T00:39:36;6.40;;;3.60;;
78116;SDS011;69042;59.120;37.904;2023-06-14T00:42:02;7.95;;;3.35;;
78116;SDS011;69042;59.120;37.904;2023-06-14T00:44:28;7.13;;;3.60;;
78116;SDS011;69042;59.120;37.904;2023-06-14T00:46:55;6.85;;;3.42;;
78116;SDS011;69042;59.120;37.904;2023-06-14T00:52:14;6.40;;;3.33;;
78116;SDS011;69042;59.120;37.904;2023-06-14T00:54:42;5.85;;;3.35;;
78116;SDS011;69042;59.120;37.904;2023-06-14T00:57:09;5.40;;;3.22;;
78116;SDS011;69042;59.120;37.904;2023-06-14T00:59:38;7.90;;;3.38;;
78116;SDS011;69042;59.120;37.904;2023-06-14T01:02:10;6.40;;;2.95;;
78116;SDS011;69042;59.120;37.904;2023-06-14T01:04:37;6.38;;;3.08;;
78116;SDS011;69042;59.120;37.904;2023-06-14T01:10:10;6.22;;;3.03;;
78116;SDS011;69042;59.120;37.904;2023-06-14T01:15:43;5.95;;;3.13;;
78116;SDS011;69042;59.120;37.904;2023-06-14T01:18:09;6.65;;;3.22;;
78116;SDS011;69042;59.120;37.904;2023-06-14T01:20:43;6.40;;;3.25;;
78116;SDS011;69042;59.120;37.904;2023-06-14T01:23:11;9.20;;;3.50;;
78116;SDS011;69042;59.120;37.904;2023-06-14T01:25:37;6.85;;;3.33;;
78116;SDS011;69042;59.120;37.904;2023-06-14T01:28:05;7.35;;;3.15;;
78116;SDS011;69042;59.120;37.904;2023-06-14T01:30:37;5.38;;;3.05;;
78116;SDS011;69042;59.120;37.904;2023-06-14T01:33:04;5.65;;;3.33;;
78116;SDS011;69042;59.120;37.904;2023-06-14T01:35:31;7.20;;;3.28;;
78116;SDS011;69042;59.120;37.904;2023-06-14T01:37:57;6.72;;;3.38;;
78116;SDS011;69042;59.120;37.904;2023-06-14T01:40:24;8.07;;;3.33;;
78116;SDS011;69042;59.120;37.904;2023-06-14T01:42:51;6.10;;;3.13;;
78116;SDS011;69042;59.120;37.904;2023-06-14T01:45:18;7.43;;;3.20;;
78116;SDS011;69042;59.120;37.904;2023-06-14T01:47:45;7.35;;;3.33;;
78116;SDS011;69042;59.120;37.904;2023-06-14T01:50:12;6.40;;;3.28;;
78116;SDS011;69042;59.120;37.904;2023-06-14T01:52:38;7.80;;;3.25;;
78116;SDS011;69042;59.120;37.904;2023-06-14T01:55:05;7.00;;;3.00;;
78116;SDS011;69042;59.120;37.904;2023-06-14T01:57:31;5.93;;;3.05;;
78116;SDS011;69042;59.120;37.904;2023-06-14T01:59:58;6.55;;;3.03;;
78116;SDS011;69042;59.120;37.904;2023-06-14T02:02:25;6.38;;;3.10;;
78116;SDS011;69042;59.120;37.904;2023-06-14T02:04:52;7.32;;;3.28;;
78116;SDS011;69042;59.120;37.904;2023-06-14T02:07:18;6.90;;;3.30;;
78116;SDS011;69042;59.120;37.904;2023-06-14T02:09:44;7.65;;;3.83;;
78116;SDS011;69042;59.120;37.904;2023-06-14T02:12:10;7.93;;;3.33;;
78116;SDS011;69042;59.120;37.904;2023-06-14T02:14:37;6.95;;;3.40;;
78116;SDS011;69042;59.120;37.904;2023-06-14T02:17:03;7.43;;;3.33;;
78116;SDS011;69042;59.120;37.904;2023-06-14T02:19:30;7.03;;;3.33;;
78116;SDS011;69042;59.120;37.904;2023-06-14T02:21:56;6.13;;;3.10;;
78116;SDS011;69042;59.120;37.904;2023-06-14T02:24:22;7.13;;;3.17;;
78116;SDS011;69042;59.120;37.904;2023-06-14T02:26:49;8.30;;;3.38;;
78116;SDS011;69042;59.120;37.904;2023-06-14T02:29:16;6.80;;;2.97;;
78116;SDS011;69042;59.120;37.904;2023-06-14T02:31:42;5.78;;;3.20;;
78116;SDS011;69042;59.120;37.904;2023-06-14T02:34:08;6.18;;;3.60;;
78116;SDS011;69042;59.120;37.904;2023-06-14T02:36:34;6.57;;;3.40;;
78116;SDS011;69042;59.120;37.904;2023-06-14T02:39:03;5.68;;;3.10;;
78116;SDS011;69042;59.120;37.904;2023-06-14T02:41:29;5.72;;;3.20;;
78116;SDS011;69042;59.120;37.904;2023-06-14T02:43:55;6.82;;;3.45;;
78116;SDS011;69042;59.120;37.904;2023-06-14T02:46:21;8.13;;;3.50;;
78116;SDS011;69042;59.120;37.904;2023-06-14T02:48:49;5.95;;;2.80;;
78116;SDS011;69042;59.120;37.904;2023-06-14T02:51:15;5.97;;;3.20;;
78116;SDS011;69042;59.120;37.904;2023-06-14T02:53:41;7.57;;;3.35;;
78116;SDS011;69042;59.120;37.904;2023-06-14T02:56:08;6.85;;;3.45;;
78116;SDS011;69042;59.120;37.904;2023-06-14T02:58:35;8.35;;;3.42;;
78116;SDS011;69042;59.120;37.904;2023-06-14T03:01:02;7.22;;;3.33;;
78116;SDS011;69042;59.120;37.904;2023-06-14T03:03:29;6.88;;;3.30;;
78116;SDS011;69042;59.120;37.904;2023-06-14T03:05:56;7.40;;;3.60;;
78116;SDS011;69042;59.120;37.904;2023-06-14T03:08:26;9.32;;;3.60;;
78116;SDS011;69042;59.120;37.904;2023-06-14T03:10:57;10.43;;;3.97;;
78116;SDS011;69042;59.120;37.904;2023-06-14T03:13:24;15.57;;;3.83;;
78116;SDS011;69042;59.120;37.904;2023-06-14T03:15:52;13.43;;;3.90;;
78116;SDS011;69042;59.120;37.904;2023-06-14T03:18:20;12.73;;;3.90;;
78116;SDS011;69042;59.120;37.904;2023-06-14T03:20:50;8.23;;;3.78;;
78116;SDS011;69042;59.120;37.904;2023-06-14T03:23:17;7.93;;;3.42;;
78116;SDS011;69042;59.120;37.904;2023-06-14T03:25:44;8.93;;;3.58;;
78116;SDS011;69042;59.120;37.904;2023-06-14T03:28:12;6.97;;;3.50;;
78116;SDS011;69042;59.120;37.904;2023-06-14T03:30:39;7.85;;;3.63;;
78116;SDS011;69042;59.120;37.904;2023-06-14T03:33:05;8.68;;;3.45;;
78116;SDS011;69042;59.120;37.904;2023-06-14T03:35:36;7.65;;;3.38;;
78116;SDS011;69042;59.120;37.904;2023-06-14T03:38:02;7.97;;;3.70;;
78116;SDS011;69042;59.120;37.904;2023-06-14T03:40:29;5.88;;;3.40;;
78116;SDS011;69042;59.120;37.904;2023-06-14T03:43:00;7.47;;;3.92;;
78116;SDS011;69042;59.120;37.904;2023-06-14T03:45:27;6.93;;;3.53;;
78116;SDS011;69042;59.120;37.904;2023-06-14T03:47:54;8.38;;;3.45;;
78116;SDS011;69042;59.120;37.904;2023-06-14T03:50:20;9.93;;;3.20;;
78116;SDS011;69042;59.120;37.904;2023-06-14T03:52:47;10.88;;;4.32;;
78116;SDS011;69042;59.120;37.904;2023-06-14T03:55:16;10.60;;;4.05;;
78116;SDS011;69042;59.120;37.904;2023-06-14T03:57:42;13.55;;;4.50;;
78116;SDS011;69042;59.120;37.904;2023-06-14T04:00:12;18.98;;;5.00;;
78116;SDS011;69042;59.120;37.904;2023-06-14T04:02:42;18.42;;;6.00;;
78116;SDS011;69042;59.120;37.904;2023-06-14T04:07:40;15.45;;;4.53;;
78116;SDS011;69042;59.120;37.904;2023-06-14T04:10:14;13.73;;;5.22;;
78116;SDS011;69042;59.120;37.904;2023-06-14T04:12:42;12.38;;;4.22;;
78116;SDS011;69042;59.120;37.904;2023-06-14T04:15:08;12.75;;;4.88;;
78116;SDS011;69042;59.120;37.904;2023-06-14T04:17:36;24.77;;;6.10;;
78116;SDS011;69042;59.120;37.904;2023-06-14T04:20:04;24.08;;;6.32;;
78116;SDS011;69042;59.120;37.904;2023-06-14T04:22:32;20.58;;;5.68;;
78116;SDS011;69042;59.120;37.904;2023-06-14T04:24:59;24.00;;;5.88;;
78116;SDS011;69042;59.120;37.904;2023-06-14T04:27:27;22.60;;;6.40;;
78116;SDS011;69042;59.120;37.904;2023-06-14T04:29:54;11.82;;;4.18;;
78116;SDS011;69042;59.120;37.904;2023-06-14T04:32:32;10.57;;;4.07;;
78116;SDS011;69042;59.120;37.904;2023-06-14T04:35:06;7.38;;;3.78;;
78116;SDS011;69042;59.120;37.904;2023-06-14T04:37:34;8.52;;;4.40;;
78116;SDS011;69042;59.120;37.904;2023-06-14T04:40:00;7.78;;;4.07;;
78116;SDS011;69042;59.120;37.904;2023-06-14T04:42:27;11.38;;;4.80;;
78116;SDS011;69042;59.120;37.904;2023-06-14T04:44:58;11.38;;;5.10;;
78116;SDS011;69042;59.120;37.904;2023-06-14T04:47:25;9.38;;;4.45;;
78116;SDS011;69042;59.120;37.904;2023-06-14T04:49:58;9.27;;;4.40;;
78116;SDS011;69042;59.120;37.904;2023-06-14T04:52:28;10.05;;;4.53;;
78116;SDS011;69042;59.120;37.904;2023-06-14T04:54:56;12.00;;;4.50;;
78116;SDS011;69042;59.120;37.904;2023-06-14T04:57:23;15.32;;;4.88;;
78116;SDS011;69042;59.120;37.904;2023-06-14T04:59:52;10.27;;;4.72;;
78116;SDS011;69042;59.120;37.904;2023-06-14T05:02:24;12.07;;;5.65;;
78116;SDS011;69042;59.120;37.904;2023-06-14T05:04:52;14.43;;;5.40;;
78116;SDS011;69042;59.120;37.904;2023-06-14T05:07:19;12.25;;;5.90;;
78116;SDS011;69042;59.120;37.904;2023-06-14T05:09:48;13.40;;;5.85;;
78116;SDS011;69042;59.120;37.904;2023-06-14T05:12:14;12.82;;;5.47;;
78116;SDS011;69042;59.120;37.904;2023-06-14T05:14:44;12.63;;;5.53;;
78116;SDS011;69042;59.120;37.904;2023-06-14T05:17:11;16.15;;;5.38;;
78116;SDS011;69042;59.120;37.904;2023-06-14T05:19:37;21.27;;;6.45;;
78116;SDS011;69042;59.120;37.904;2023-06-14T05:22:03;16.13;;;6.20;;
78116;SDS011;69042;59.120;37.904;2023-06-14T05:24:29;18.67;;;6.20;;
78116;SDS011;69042;59.120;37.904;2023-06-14T05:26:56;16.08;;;5.82;;
78116;SDS011;69042;59.120;37.904;2023-06-14T05:29:22;12.43;;;6.70;;
78116;SDS011;69042;59.120;37.904;2023-06-14T05:31:48;16.63;;;6.53;;
78116;SDS011;69042;59.120;37.904;2023-06-14T05:34:14;19.63;;;6.85;;
78116;SDS011;69042;59.120;37.904;2023-06-14T05:36:40;21.77;;;8.07;;
78116;SDS011;69042;59.120;37.904;2023-06-14T05:39:06;18.00;;;7.20;;
78116;SDS011;69042;59.120;37.904;2023-06-14T05:41:34;17.95;;;7.88;;
78116;SDS011;69042;59.120;37.904;2023-06-14T05:44:00;21.20;;;9.18;;
78116;SDS011;69042;59.120;37.904;2023-06-14T05:46:27;21.20;;;8.32;;
78116;SDS011;69042;59.120;37.904;2023-06-14T05:48:54;17.73;;;7.85;;
78116;SDS011;69042;59.120;37.904;2023-06-14T05:51:21;22.10;;;8.43;;
78116;SDS011;69042;59.120;37.904;2023-06-14T05:53:47;36.25;;;9.13;;
78116;SDS011;69042;59.120;37.904;2023-06-14T05:56:14;28.23;;;9.82;;
78116;SDS011;69042;59.120;37.904;2023-06-14T05:58:41;29.27;;;10.77;;
78116;SDS011;69042;59.120;37.904;2023-06-14T06:01:08;32.47;;;10.63;;
78116;SDS011;69042;59.120;37.904;2023-06-14T06:03:34;26.65;;;9.43;;
78116;SDS011;69042;59.120;37.904;2023-06-14T06:06:00;26.98;;;9.32;;
78116;SDS011;69042;59.120;37.904;2023-06-14T06:08:26;23.58;;;10.13;;
78116;SDS011;69042;59.120;37.904;2023-06-14T06:10:53;30.42;;;10.13;;
78116;SDS011;69042;59.120;37.904;2023-06-14T06:13:19;30.92;;;10.60;;
78116;SDS011;69042;59.120;37.904;2023-06-14T06:15:45;24.85;;;8.55;;
78116;SDS011;69042;59.120;37.904;2023-06-14T06:18:12;25.75;;;8.60;;
78116;SDS011;69042;59.120;37.904;2023-06-14T06:20:38;20.02;;;8.30;;
78116;SDS011;69042;59.120;37.904;2023-06-14T06:23:04;23.17;;;9.27;;
78116;SDS011;69042;59.120;37.904;2023-06-14T06:25:30;18.95;;;8.80;;
78116;SDS011;69042;59.120;37.904;2023-06-14T06:27:57;24.58;;;8.60;;
78116;SDS011;69042;59.120;37.904;2023-06-14T06:30:24;16.80;;;8.13;;
78116;SDS011;69042;59.120;37.904;2023-06-14T06:32:50;29.02;;;9.48;;
78116;SDS011;69042;59.120;37.904;2023-06-14T06:35:16;25.17;;;9.25;;
78116;SDS011;69042;59.120;37.904;2023-06-14T06:37:43;21.58;;;9.80;;
78116;SDS011;69042;59.120;37.904;2023-06-14T06:40:09;23.70;;;9.88;;
78116;SDS011;69042;59.120;37.904;2023-06-14T06:42:36;26.52;;;9.52;;
78116;SDS011;69042;59.120;37.904;2023-06-14T06:45:04;21.35;;;8.93;;
78116;SDS011;69042;59.120;37.904;2023-06-14T06:47:32;21.83;;;9.13;;
78116;SDS011;69042;59.120;37.904;2023-06-14T06:49:58;17.48;;;7.15;;
78116;SDS011;69042;59.120;37.904;2023-06-14T06:52:24;16.23;;;7.80;;
78116;SDS011;69042;59.120;37.904;2023-06-14T06:54:50;17.52;;;7.13;;
78116;SDS011;69042;59.120;37.904;2023-06-14T06:57:20;19.00;;;6.35;;
78116;SDS011;69042;59.120;37.904;2023-06-14T07:02:15;16.98;;;6.63;;
78116;SDS011;69042;59.120;37.904;2023-06-14T07:04:41;14.38;;;6.43;;
78116;SDS011;69042;59.120;37.904;2023-06-14T07:07:07;18.67;;;7.32;;
78116;SDS011;69042;59.120;37.904;2023-06-14T07:09:35;10.18;;;5.65;;
78116;SDS011;69042;59.120;37.904;2023-06-14T07:12:01;10.38;;;4.47;;
78116;SDS011;69042;59.120;37.904;2023-06-14T07:14:28;13.27;;;6.55;;
78116;SDS011;69042;59.120;37.904;2023-06-14T07:16:55;10.13;;;5.70;;
78116;SDS011;69042;59.120;37.904;2023-06-14T07:19:21;14.80;;;6.55;;
78116;SDS011;69042;59.120;37.904;2023-06-14T07:21:47;13.23;;;6.55;;
78116;SDS011;69042;59.120;37.904;2023-06-14T07:24:14;14.27;;;9.77;;
78116;SDS011;69042;59.120;37.904;2023-06-14T07:26:40;13.63;;;5.70;;
78116;SDS011;69042;59.120;37.904;2023-06-14T07:29:06;14.50;;;5.70;;
78116;SDS011;69042;59.120;37.904;2023-06-14T07:31:32;11.13;;;4.97;;
78116;SDS011;69042;59.120;37.904;2023-06-14T07:33:58;11.30;;;4.90;;
78116;SDS011;69042;59.120;37.904;2023-06-14T07:36:25;17.45;;;9.52;;
78116;SDS011;69042;59.120;37.904;2023-06-14T07:38:52;7.95;;;3.97;;
78116;SDS011;69042;59.120;37.904;2023-06-14T07:41:18;15.18;;;4.88;;
78116;SDS011;69042;59.120;37.904;2023-06-14T07:43:44;9.60;;;3.95;;
78116;SDS011;69042;59.120;37.904;2023-06-14T07:46:10;8.45;;;4.13;;
78116;SDS011;69042;59.120;37.904;2023-06-14T07:48:36;7.55;;;3.63;;
78116;SDS011;69042;59.120;37.904;2023-06-14T07:51:02;6.72;;;4.28;;
78116;SDS011;69042;59.120;37.904;2023-06-14T07:53:29;10.88;;;4.00;;
78116;SDS011;69042;59.120;37.904;2023-06-14T07:55:56;8.43;;;4.03;;
78116;SDS011;69042;59.120;37.904;2023-06-14T07:58:22;7.00;;;4.00;;
78116;SDS011;69042;59.120;37.904;2023-06-14T08:00:48;10.13;;;4.38;;
78116;SDS011;69042;59.120;37.904;2023-06-14T08:03:15;8.57;;;4.00;;
78116;SDS011;69042;59.120;37.904;2023-06-14T08:05:41;12.48;;;4.47;;
78116;SDS011;69042;59.120;37.904;2023-06-14T08:08:07;8.68;;;4.53;;
78116;SDS011;69042;59.120;37.904;2023-06-14T08:10:33;11.35;;;4.63;;
78116;SDS011;69042;59.120;37.904;2023-06-14T08:13:00;7.45;;;4.45;;
78116;SDS011;69042;59.120;37.904;2023-06-14T08:15:26;10.57;;;4.68;;
78116;SDS011;69042;59.120;37.904;2023-06-14T08:17:52;9.35;;;4.35;;
78116;SDS011;69042;59.120;37.904;2023-06-14T08:20:18;10.30;;;4.45;;
78116;SDS011;69042;59.120;37.904;2023-06-14T08:22:44;6.95;;;4.60;;
78116;SDS011;69042;59.120;37.904;2023-06-14T08:25:12;8.48;;;4.40;;
78116;SDS011;69042;59.120;37.904;2023-06-14T08:27:39;9.07;;;5.25;;
78116;SDS011;69042;59.120;37.904;2023-06-14T08:30:05;8.75;;;4.57;;
78116;SDS011;69042;59.120;37.904;2023-06-14T08:32:33;10.63;;;4.93;;
78116;SDS011;69042;59.120;37.904;2023-06-14T08:34:59;9.65;;;4.50;;
78116;SDS011;69042;59.120;37.904;2023-06-14T08:37:26;13.40;;;6.00;;
78116;SDS011;69042;59.120;37.904;2023-06-14T08:39:52;10.32;;;5.60;;
78116;SDS011;69042;59.120;37.904;2023-06-14T08:42:18;8.65;;;4.30;;
78116;SDS011;69042;59.120;37.904;2023-06-14T08:44:47;6.70;;;3.88;;
78116;SDS011;69042;59.120;37.904;2023-06-14T08:47:13;8.10;;;4.63;;
78116;SDS011;69042;59.120;37.904;2023-06-14T08:49:41;9.45;;;4.40;;
78116;SDS011;69042;59.120;37.904;2023-06-14T08:52:12;10.05;;;4.82;;
78116;SDS011;69042;59.120;37.904;2023-06-14T08:54:44;12.35;;;5.63;;
78116;SDS011;69042;59.120;37.904;2023-06-14T08:57:11;11.60;;;6.25;;
78116;SDS011;69042;59.120;37.904;2023-06-14T08:59:45;14.95;;;7.90;;
78116;SDS011;69042;59.120;37.904;2023-06-14T09:02:15;11.05;;;6.00;;
78116;SDS011;69042;59.120;37.904;2023-06-14T09:04:43;9.73;;;5.53;;
78116;SDS011;69042;59.120;37.904;2023-06-14T09:09:39;8.50;;;5.45;;
78116;SDS011;69042;59.120;37.904;2023-06-14T09:14:35;8.90;;;5.40;;
78116;SDS011;69042;59.120;37.904;2023-06-14T09:17:05;14.57;;;11.23;;
78116;SDS011;69042;59.120;37.904;2023-06-14T09:19:32;8.10;;;4.38;;
78116;SDS011;69042;59.120;37.904;2023-06-14T09:22:02;10.05;;;4.70;;
78116;SDS011;69042;59.120;37.904;2023-06-14T09:24:29;8.45;;;4.80;;
78116;SDS011;69042;59.120;37.904;2023-06-14T09:26:55;10.55;;;5.13;;
78116;SDS011;69042;59.120;37.904;2023-06-14T09:29:23;20.67;;;6.20;;
78116;SDS011;69042;59.120;37.904;2023-06-14T09:31:49;12.43;;;5.80;;
78116;SDS011;69042;59.120;37.904;2023-06-14T09:34:16;12.30;;;5.78;;
78116;SDS011;69042;59.120;37.904;2023-06-14T09:36:45;13.88;;;6.03;;
78116;SDS011;69042;59.120;37.904;2023-06-14T09:39:11;11.40;;;5.70;;
78116;SDS011;69042;59.120;37.904;2023-06-14T09:41:43;12.18;;;6.40;;
78116;SDS011;69042;59.120;37.904;2023-06-14T09:44:10;11.45;;;5.22;;
78116;SDS011;69042;59.120;37.904;2023-06-14T09:46:38;13.55;;;5.60;;
78116;SDS011;69042;59.120;37.904;2023-06-14T09:49:08;10.27;;;5.53;;
78116;SDS011;69042;59.120;37.904;2023-06-14T09:51:34;9.00;;;5.05;;
78116;SDS011;69042;59.120;37.904;2023-06-14T09:54:09;9.20;;;5.10;;
78116;SDS011;69042;59.120;37.904;2023-06-14T09:56:47;12.50;;;6.30;;
78116;SDS011;69042;59.120;37.904;2023-06-14T09:59:16;15.32;;;7.32;;
78116;SDS011;69042;59.120;37.904;2023-06-14T10:01:49;18.70;;;8.82;;
78116;SDS011;69042;59.120;37.904;2023-06-14T10:04:16;16.90;;;8.88;;
78116;SDS011;69042;59.120;37.904;2023-06-14T10:06:46;8.13;;;4.50;;
78116;SDS011;69042;59.120;37.904;2023-06-14T10:09:13;8.82;;;4.57;;
78116;SDS011;69042;59.120;37.904;2023-06-14T10:11:40;12.45;;;5.53;;
78116;SDS011;69042;59.120;37.904;2023-06-14T10:14:09;7.47;;;4.45;;
78116;SDS011;69042;59.120;37.904;2023-06-14T10:22:51;11.27;;;5.20;;
78116;SDS011;69042;59.120;37.904;2023-06-14T10:25:32;7.63;;;4.50;;
78116;SDS011;69042;59.120;37.904;2023-06-14T10:28:32;8.48;;;4.15;;
78116;SDS011;69042;59.120;37.904;2023-06-14T10:31:01;12.18;;;4.60;;
78116;SDS011;69042;59.120;37.904;2023-06-14T10:33:40;9.15;;;4.90;;
78116;SDS011;69042;59.120;37.904;2023-06-14T10:36:25;9.13;;;4.55;;
78116;SDS011;69042;59.120;37.904;2023-06-14T10:39:11;7.40;;;4.35;;
78116;SDS011;69042;59.120;37.904;2023-06-14T10:41:40;10.10;;;5.10;;
78116;SDS011;69042;59.120;37.904;2023-06-14T10:44:49;7.72;;;4.80;;
78116;SDS011;69042;59.120;37.904;2023-06-14T10:47:00;11.18;;;5.10;;
78116;SDS011;69042;59.120;37.904;2023-06-14T10:49:37;9.10;;;4.30;;
78116;SDS011;69042;59.120;37.904;2023-06-14T10:52:17;10.40;;;4.70;;
78116;SDS011;69042;59.120;37.904;2023-06-14T10:57:37;7.25;;;3.88;;
78116;SDS011;69042;59.120;37.904;2023-06-14T11:00:17;6.28;;;4.10;;
78116;SDS011;69042;59.120;37.904;2023-06-14T11:06:00;8.48;;;4.20;;
78116;SDS011;69042;59.120;37.904;2023-06-14T11:08:40;7.32;;;4.10;;
78116;SDS011;69042;59.120;37.904;2023-06-14T11:11:16;7.18;;;4.15;;
78116;SDS011;69042;59.120;37.904;2023-06-14T11:13:45;7.38;;;4.45;;
78116;SDS011;69042;59.120;37.904;2023-06-14T11:16:12;8.18;;;4.18;;
78116;SDS011;69042;59.120;37.904;2023-06-14T11:18:40;6.47;;;4.20;;
78116;SDS011;69042;59.120;37.904;2023-06-14T11:21:08;10.25;;;5.45;;
78116;SDS011;69042;59.120;37.904;2023-06-14T11:23:34;7.72;;;4.50;;
78116;SDS011;69042;59.120;37.904;2023-06-14T11:28:39;11.73;;;4.70;;
78116;SDS011;69042;59.120;37.904;2023-06-14T11:31:06;9.43;;;4.47;;
78116;SDS011;69042;59.120;37.904;2023-06-14T11:33:33;9.40;;;4.63;;
78116;SDS011;69042;59.120;37.904;2023-06-14T11:36:03;10.43;;;4.63;;
78116;SDS011;69042;59.120;37.904;2023-06-14T11:38:36;9.55;;;5.28;;
78116;SDS011;69042;59.120;37.904;2023-06-14T11:41:03;10.38;;;4.63;;
78116;SDS011;69042;59.120;37.904;2023-06-14T11:43:29;10.80;;;4.93;;
78116;SDS011;69042;59.120;37.904;2023-06-14T11:45:57;9.85;;;5.57;;
78116;SDS011;69042;59.120;37.904;2023-06-14T11:48:23;8.30;;;4.97;;
78116;SDS011;69042;59.120;37.904;2023-06-14T11:51:01;7.57;;;4.60;;
78116;SDS011;69042;59.120;37.904;2023-06-14T11:53:27;9.05;;;4.80;;
78116;SDS011;69042;59.120;37.904;2023-06-14T11:55:53;8.35;;;4.63;;
78116;SDS011;69042;59.120;37.904;2023-06-14T11:58:19;9.32;;;4.20;;
78116;SDS011;69042;59.120;37.904;2023-06-14T12:00:48;8.68;;;4.35;;
78116;SDS011;69042;59.120;37.904;2023-06-14T12:03:15;8.00;;;4.60;;
78116;SDS011;69042;59.120;37.904;2023-06-14T12:05:41;9.88;;;4.93;;
78116;SDS011;69042;59.120;37.904;2023-06-14T12:08:07;8.82;;;4.90;;
78116;SDS011;69042;59.120;37.904;2023-06-14T12:10:40;11.38;;;5.75;;
78116;SDS011;69042;59.120;37.904;2023-06-14T12:13:10;7.00;;;4.15;;
78116;SDS011;69042;59.120;37.904;2023-06-14T12:15:36;6.60;;;4.18;;
78116;SDS011;69042;59.120;37.904;2023-06-14T12:18:06;8.32;;;4.25;;
78116;SDS011;69042;59.120;37.904;2023-06-14T12:20:35;7.00;;;4.38;;
78116;SDS011;69042;59.120;37.904;2023-06-14T12:25:33;7.13;;;4.95;;
78116;SDS011;69042;59.120;37.904;2023-06-14T12:28:04;6.22;;;4.10;;
78116;SDS011;69042;59.120;37.904;2023-06-14T12:30:32;9.38;;;4.43;;
78116;SDS011;69042;59.120;37.904;2023-06-14T12:32:59;10.98;;;4.50;;
78116;SDS011;69042;59.120;37.904;2023-06-14T12:35:26;8.85;;;4.00;;
78116;SDS011;69042;59.120;37.904;2023-06-14T12:37:52;7.45;;;4.00;;
78116;SDS011;69042;59.120;37.904;2023-06-14T12:40:18;7.03;;;3.92;;
78116;SDS011;69042;59.120;37.904;2023-06-14T12:42:45;8.57;;;4.32;;
78116;SDS011;69042;59.120;37.904;2023-06-14T12:45:12;7.95;;;4.30;;
78116;SDS011;69042;59.120;37.904;2023-06-14T12:47:39;7.95;;;4.30;;
78116;SDS011;69042;59.120;37.904;2023-06-14T12:50:05;10.80;;;4.65;;
78116;SDS011;69042;59.120;37.904;2023-06-14T12:52:32;7.18;;;4.35;;
78116;SDS011;69042;59.120;37.904;2023-06-14T12:55:04;8.77;;;4.22;;
78116;SDS011;69042;59.120;37.904;2023-06-14T12:57:31;7.15;;;4.13;;
78116;SDS011;69042;59.120;37.904;2023-06-14T12:59:59;42.78;;;27.10;;
78116;SDS011;69042;59.120;37.904;2023-06-14T13:02:25;6.95;;;4.70;;
78116;SDS011;69042;59.120;37.904;2023-06-14T13:04:52;9.60;;;5.18;;
78116;SDS011;69042;59.120;37.904;2023-06-14T13:07:18;7.93;;;4.63;;
78116;SDS011;69042;59.120;37.904;2023-06-14T13:09:44;8.05;;;4.07;;
78116;SDS011;69042;59.120;37.904;2023-06-14T13:12:11;7.68;;;4.10;;
78116;SDS011;69042;59.120;37.904;2023-06-14T13:14:38;7.18;;;3.90;;
78116;SDS011;69042;59.120;37.904;2023-06-14T13:59:43;10.50;;;5.78;;
78116;SDS011;69042;59.120;37.904;2023-06-14T14:02:10;11.48;;;6.30;;
78116;SDS011;69042;59.120;37.904;2023-06-14T14:07:04;9.57;;;4.63;;
78116;SDS011;69042;59.120;37.904;2023-06-14T14:09:32;6.25;;;3.97;;
78116;SDS011;69042;59.120;37.904;2023-06-14T14:11:58;9.95;;;5.32;;
78116;SDS011;69042;59.120;37.904;2023-06-14T14:14:24;9.02;;;5.00;;
78116;SDS011;69042;59.120;37.904;2023-06-14T14:16:51;11.80;;;5.68;;
78116;SDS011;69042;59.120;37.904;2023-06-14T14:19:19;10.75;;;6.88;;
78116;SDS011;69042;59.120;37.904;2023-06-14T14:21:45;9.75;;;5.57;;
78116;SDS011;69042;59.120;37.904;2023-06-14T14:26:55;16.95;;;10.65;;
78116;SDS011;69042;59.120;37.904;2023-06-14T14:29:25;6.35;;;4.40;;
78116;SDS011;69042;59.120;37.904;2023-06-14T14:31:54;7.13;;;4.30;;
78116;SDS011;69042;59.120;37.904;2023-06-14T14:34:22;6.60;;;3.97;;
78116;SDS011;69042;59.120;37.904;2023-06-14T14:36:49;5.88;;;3.97;;
78116;SDS011;69042;59.120;37.904;2023-06-14T14:39:15;6.35;;;3.85;;
78116;SDS011;69042;59.120;37.904;2023-06-14T14:41:41;9.38;;;4.50;;
78116;SDS011;69042;59.120;37.904;2023-06-14T14:44:26;8.23;;;4.82;;
78116;SDS011;69042;59.120;37.904;2023-06-14T14:46:52;7.95;;;4.05;;
78116;SDS011;69042;59.120;37.904;2023-06-14T14:49:18;6.53;;;4.07;;
78116;SDS011;69042;59.120;37.904;2023-06-14T14:51:45;9.07;;;5.75;;
78116;SDS011;69042;59.120;37.904;2023-06-14T14:54:11;8.30;;;4.15;;
78116;SDS011;69042;59.120;37.904;2023-06-14T14:56:37;7.00;;;4.80;;
78116;SDS011;69042;59.120;37.904;2023-06-14T14:59:04;8.50;;;5.05;;
78116;SDS011;69042;59.120;37.904;2023-06-14T15:01:30;10.23;;;4.88;;
78116;SDS011;69042;59.120;37.904;2023-06-14T15:03:56;6.95;;;4.32;;
78116;SDS011;69042;59.120;37.904;2023-06-14T15:06:22;11.77;;;6.03;;
78116;SDS011;69042;59.120;37.904;2023-06-14T15:08:48;8.85;;;5.55;;
78116;SDS011;69042;59.120;37.904;2023-06-14T15:11:15;9.20;;;5.03;;
78116;SDS011;69042;59.120;37.904;2023-06-14T15:13:59;10.30;;;5.03;;
78116;SDS011;69042;59.120;37.904;2023-06-14T15:16:26;7.65;;;4.57;;
78116;SDS011;69042;59.120;37.904;2023-06-14T15:19:10;6.90;;;4.43;;
78116;SDS011;69042;59.120;37.904;2023-06-14T15:21:36;10.95;;;5.05;;
78116;SDS011;69042;59.120;37.904;2023-06-14T15:24:02;10.23;;;5.72;;
78116;SDS011;69042;59.120;37.904;2023-06-14T15:26:29;9.32;;;5.60;;
78116;SDS011;69042;59.120;37.904;2023-06-14T15:28:55;6.15;;;4.30;;
78116;SDS011;69042;59.120;37.904;2023-06-14T15:31:21;9.25;;;5.18;;
78116;SDS011;69042;59.120;37.904;2023-06-14T15:33:49;8.05;;;4.90;;
78116;SDS011;69042;59.120;37.904;2023-06-14T15:39:00;9.50;;;4.90;;
78116;SDS011;69042;59.120;37.904;2023-06-14T15:44:11;9.43;;;4.70;;
78116;SDS011;69042;59.120;37.904;2023-06-14T15:46:38;6.95;;;4.47;;
78116;SDS011;69042;59.120;37.904;2023-06-14T15:49:08;7.10;;;4.22;;
78116;SDS011;69042;59.120;37.904;2023-06-14T15:51:36;8.15;;;4.35;;
78116;SDS011;69042;59.120;37.904;2023-06-14T15:54:02;6.78;;;4.25;;
78116;SDS011;69042;59.120;37.904;2023-06-14T15:56:28;9.52;;;4.72;;
78116;SDS011;69042;59.120;37.904;2023-06-14T15:58:55;8.23;;;4.28;;
78116;SDS011;69042;59.120;37.904;2023-06-14T16:01:22;10.10;;;5.40;;